Carson Valley, Nevada Weather observations

Data are for 10 minute period ending at time listed.
 Day   Time   Solar   Ave.   Ave.  Ave.  Vector  Max.   Baro.   Total    
  of    of     Rad.   Air    Rel.  Wind   Wind   Wind  Press.  Precip.   
Year   Day            Temp.  Hum.  Speed  Dir.   Gust                    
2014   (PST)  Kw/m2    F      %     mph   deg.    mph    mb.     in.     
-------------------------------------------------------------------------
 108   17:50   0.06   60.8    48   17.4   285    26.5   852.3    0.00 
 108   18:00   0.03   60.8    49   12.5   295    19.6   852.4    0.00 
 108   18:10   0.02   61.1    46   10.8   288    17.6   852.4    0.00 
 108   18:20   0.01   61.6    43   12.5   288    20.0   852.4    0.00 
 108   18:30   0.01   61.4    44   10.0   294    17.8   852.5    0.00 
 108   18:40   0.00   61.7    43   12.8   291    20.9   852.6    0.00 
 108   18:50   0.00   61.7    44   12.9   281    20.3   852.7    0.00 
 108   19:00   0.00   61.4    46   12.7   274    23.2   852.9    0.00 
 108   19:10   0.00   61.4    46   15.6   273    23.1   853.0    0.00 
 108   19:20   0.00   61.0    47   12.2   277    17.6   853.2    0.00 
 108   19:30   0.00   60.8    48   13.6   282    19.7   853.3    0.00 
 108   19:40   0.00   60.5    48   16.2   277    22.1   853.4    0.00 
 108   19:50   0.00   60.2    50   13.4   270    20.5   853.6    0.00 
 108   20:00   0.00   60.3    50   14.2   268    21.0   853.8    0.00 
 108   20:10   0.00   60.1    49   13.0   268    19.6   854.0    0.00 
 108   20:20   0.00   60.0    48   13.5   278    19.5   854.1    0.00 
 108   20:30   0.00   59.6    49   14.4   270    22.6   854.2    0.00 
 108   20:40   0.00   58.7    53   12.0   275    19.6   854.3    0.00 
 108   20:50   0.00   58.6    52   11.5   280    16.5   854.4    0.00 
 108   21:00   0.00   58.6    52   10.9   284    15.2   854.5    0.00 
 108   21:10   0.00   57.8    54    9.1   284    14.4   854.5    0.00 
 108   21:20   0.00   57.7    54    8.4   257    15.4   854.6    0.00 
 108   21:30   0.00   57.2    56    6.2   238    10.3   854.7    0.00 
 108   21:40   0.00   57.5    54    4.9   266     8.4   854.6    0.00 
 108   21:50   0.00   57.3    53    5.0   269     7.3   854.6    0.00 
 108   22:00   0.00   55.1    59    6.1   269     8.6   854.6    0.00 
 108   22:10   0.00   53.6    63    4.1   223     5.9   854.6    0.00 
 108   22:20   0.00   53.5    62    3.1   229     4.9   854.8    0.00 
 108   22:30   0.00   53.0    63    2.4    29     4.7   854.8    0.00 
 108   22:40   0.00   53.2    61    1.8   284     3.7   854.7    0.00 
 108   22:50   0.00   53.6    61    3.2   202     4.7   854.7    0.00 
 108   23:00   0.00   52.3    63    1.3    77     2.5   854.8    0.00 
 108   23:10   0.00   52.5    65    0.8   327     1.8   854.8    0.00 
 108   23:20   0.00   52.0    68    0.9     7     3.4   854.8    0.00 
 108   23:30   0.00   49.4    71    3.3    41     6.9   854.7    0.00 
 108   23:40   0.00   49.8    75    2.6   341     4.0   854.6    0.00 
 108   23:50   0.00   48.9    71    3.1    23     3.9   854.7    0.00 
 109    0:00   0.00   49.6    73    3.4     3     4.5   854.7    0.00 
 109    0:10   0.00   48.1    76    2.6   318     3.9   854.6    0.00 
 109    0:20   0.00   47.2    79    3.9   198     6.9   854.5    0.00 
 109    0:30   0.00   47.8    76    0.9   220     3.5   854.5    0.00 
 109    0:40   0.00   48.3    75    2.6   158     4.3   854.4    0.00 
 109    0:50   0.00   47.0    80    3.5   152     4.5   854.2    0.00 
 109    1:00   0.00   46.1    81    1.8   187     5.4   854.2    0.00 
 109    1:10   0.00   45.8    81    2.4   186     4.7   854.2    0.00 
 109    1:20   0.00   45.0    82    2.0   359     3.8   854.3    0.00 
 109    1:30   0.00   43.1    84    3.3    53     4.2   854.2    0.00 
 109    1:40   0.00   42.3    88    2.3   344     4.1   854.2    0.00 
 109    1:50   0.00   43.3    88    2.3   302     3.7   854.1    0.00 
 109    2:00   0.00   43.6    88    3.3   302     4.1   854.1    0.00 
 109    2:10   0.00   43.4    88    4.1   312     5.7   854.2    0.00 
 109    2:20   0.00   43.7    88    3.5   330     5.8   854.3    0.00 
 109    2:30   0.00   44.4    86    2.7   313     3.9   854.4    0.00 
 109    2:40   0.00   43.5    86    1.5   302     2.5   854.5    0.00 
 109    2:50   0.00   43.6    86    2.5   304     3.9   854.5    0.00 
 109    3:00   0.00   43.7    86    0.3   310     1.5   854.6    0.00 
 109    3:10   0.00   42.6    84    1.3    82     2.8   854.5    0.00 
 109    3:20   0.00   40.2    88    2.5    64     3.9   854.5    0.00 
 109    3:30   0.00   39.4    89    3.7    80     5.0   854.5    0.00 
 109    3:40   0.00   39.4    91    3.2    54     4.8   854.3    0.00 
 109    3:50   0.00   40.7    87    3.7    87     4.5   854.4    0.00 
 109    4:00   0.00   43.0    84    2.7   130     5.7   854.5    0.00 
 109    4:10   0.00   42.3    84    2.6   168     4.7   854.6    0.00 
 109    4:20   0.00   40.4    87    0.9   180     2.3   854.6    0.00 
 109    4:30   0.00   39.9    90    1.7    15     3.4   854.6    0.00 
 109    4:40   0.00   39.7    91    2.5   354     4.2   854.6    0.00 
 109    4:50   0.00   40.4    90    2.8    10     4.9   854.7    0.00 
 109    5:00   0.00   40.9    90    1.3   251     4.7   854.9    0.00 
 109    5:10   0.00   41.7    87    2.4   127     4.2   854.9    0.00 
 109    5:20   0.00   40.6    87    3.2   163     5.0   855.1    0.00 
 109    5:30   0.01   38.8    91    2.4   138     4.7   855.1    0.00 
 109    5:40   0.02   38.5    91    3.6   165     6.6   855.3    0.00 
 109    5:50   0.02   39.0    92    3.1   123     5.8   855.4    0.00 
 109    6:00   0.05   39.2    91    1.6   144     3.7   855.5    0.00 
 109    6:10   0.08   40.1    92    1.8   182     2.8   855.7    0.00 
 109    6:20   0.14   40.8    90    3.2   149     6.0   855.6    0.00 
 109    6:30   0.18   42.4    88    2.3   356     7.5   855.8    0.00 
 109    6:40   0.10   43.5    85    2.0   119     4.5   855.9    0.00 
 109    6:50   0.23   44.5    86    1.7    63     3.7   855.9    0.00 
 109    7:00   0.29   46.7    82    2.3   346     4.5   855.9    0.00 
 109    7:10   0.34   48.7    76    2.9    38     5.0   856.0    0.00 
 109    7:20   0.37   50.8    69    2.8    41     5.3   856.1    0.00 
 109    7:30   0.41   51.5    65    2.7    12     6.0   856.1    0.00 
 109    7:40   0.44   52.2    63    2.3    12     4.7   856.1    0.00 
 109    7:50   0.48   54.2    58    1.5   103     3.0   856.3    0.00 
 109    8:00   0.53   55.9    56    1.7    57     4.6   856.3    0.00 
 109    8:10   0.55   55.5    58    3.4    96     5.6   856.3    0.00 
 109    8:20   0.57   56.5    57    2.9   136     5.3   856.5    0.00 
 109    8:30   0.58   58.2    54    1.2   191     3.6   856.6    0.00 
 109    8:40   0.64   59.1    52    2.5   137     4.0   856.7    0.00 
 109    8:50   0.67   60.5    48    2.0   148     4.2   856.7    0.00 
 109    9:00   0.70   60.2    46    5.8   351    15.9   856.6    0.00 
 109    9:10   0.73   61.7    39    5.2    96    13.1   856.8    0.00 
 109    9:20   0.75   62.6    35    3.8   103     8.5   856.7    0.00 
 109    9:30   0.79   63.3    32    1.6    14     4.8   856.8    0.00 
 109    9:40   0.81   63.5    32    4.6   164     8.3   856.8    0.00 
 109    9:50   0.80   62.9    32    3.7   241     8.0   856.7    0.00 
 109   10:00   0.86   64.9    28    2.7   165     6.6   856.8    0.00 
 109   10:10   0.85   65.0    30    1.9   330     5.8   856.9    0.00 
 109   10:20   0.73   65.3    30    4.0    57    10.2   856.8    0.00 
 109   10:30   0.89   64.7    30    4.3   329    10.7   856.8    0.00 
 109   10:40   0.91   64.0    29    8.0   249    18.1   856.8    0.00 
 109   10:50   0.93   64.5    31   10.7   243    22.6   856.7    0.00 
 109   11:00   0.95   65.0    29    7.4   223    17.6   856.7    0.00 
 109   11:10   0.94   65.5    30    8.4   257    15.0   856.6    0.00 
 109   11:20   0.92   65.2    32   14.1   256    25.0   856.4    0.00 
 109   11:30   0.96   65.2    29   12.0   223    23.0   856.4    0.00 
 109   11:40   0.96   65.2    31   14.8   238    23.2   856.4    0.00 
 109   11:50   0.97   65.2    30   15.2   245    23.5   856.3    0.00 
 109   12:00   0.98   65.6    30   11.5   245    21.3   856.3    0.00 
 109   12:10   0.81   66.1    30    9.9   243    18.3   856.3    0.00 
 109   12:20   0.80   65.9    28   12.2   244    23.2   856.4    0.00 
 109   12:30   0.90   66.3    29   11.5   234    24.5   856.4    0.00 
 109   12:40   0.94   66.1    30   11.9   246    19.7   856.5    0.00 
 109   12:50   0.93   66.2    28    8.8   260    22.5   856.6    0.00 
 109   13:00   0.90   66.6    28    9.3   250    23.3   856.5    0.00 
 109   13:10   0.76   66.5    30   10.4   216    22.7   856.5    0.00 
 109   13:20   0.66   66.2    31   11.9   231    25.6   856.6    0.00 
 109   13:30   0.88   67.1    33    7.9   241    18.0   856.5    0.00 
 109   13:40   0.87   66.8    33   12.8   256    25.2   856.4    0.00 
 109   13:50   0.84   66.8    35   12.3   251    25.6   856.4    0.00 
 109   14:00   0.83   66.7    36   12.3   255    31.0   856.4    0.00 
 109   14:10   0.81   66.8    36   11.9   258    26.5   856.3    0.00 
 109   14:20   0.80   66.8    36   12.5   243    21.5   856.3    0.00 
 109   14:30   0.76   67.8    36    9.9   219    23.9   856.3    0.00 
 109   14:40   0.75   67.5    35   11.0   215    20.6   856.2    0.00 
 109   14:50   0.73   67.6    32    9.3   194    17.8   856.3    0.00 
 109   15:00   0.71   68.0    31    6.4   222    16.9   856.4    0.00 
 109   15:10   0.66   67.5    29    5.9    26    21.3   856.3    0.00 
 109   15:20   0.63   67.6    30    7.9   271    20.5   856.3    0.00 
 109   15:30   0.59   66.8    32    9.1   249    18.7   856.4    0.00 
 109   15:40   0.56   67.0    28    7.1   234    18.9   856.5    0.00 
 109   15:50   0.53   67.6    26    3.2   192     9.1   856.5    0.00 
 109   16:00   0.50   67.7    27    7.1   206    19.4   856.6    0.00 
 109   16:10   0.46   67.0    25    6.8   175    20.1   856.6    0.00 
 109   16:20   0.43   66.9    25    6.3   196    19.2   856.6    0.00 
 109   16:30   0.39   67.1    24    4.3   143     8.3   856.7    0.00 
 109   16:40   0.34   67.1    24    4.3    21     9.6   857.0    0.00 
 109   16:50   0.31   66.2    23    4.6     0    12.0   857.0    0.00 
 109   17:00   0.27   64.9    26   10.1   234    21.6   857.1    0.00 
 109   17:10   0.21   64.0    23   10.4   234    17.2   857.1    0.00 
 109   17:20   0.17   63.1    26   13.5   235    28.1   857.0    0.00 
 109   17:30   0.12   62.5    25   12.6   251    21.5   857.1    0.00 
 109   17:40   0.09   62.3    24   11.4   251    22.7   857.1    0.00 

Return to Carson Valley graphs page.


Western Regional Climate Center,wrcc@dri.edu